Elizabeth — 9V8794 — position and weather

sailwx.info

Track history (hours):
 
Tides and Currents Weather Stations Pressure Air Temp Water Temp Dewpoint Dewpoint Depression Visibility Wind Speed Wind Dir Waves Ship Positions

Elizabeth

Last reported at 2017-Jun-10 15:14 UTC. Time now 2017-Jun-23 08:37 UTC.
Position N 31°02' E 122°20'.
Warning: this ship's position is 12 days out of date.

Length 190 m; draft 6.4 m.

Type: Cargo ship. MMSI: 566073000.

Date/timePositionNaut miles runAvg speedWind from/ knotsBaromVisibWave heightAir tempDewpointWater temp
2017-Jun-10 15:14N 31°02' E 122°20'2 9.5
2017-Jun-10 15:00N 31°02' E 122°17'8 7.4
2017-Jun-10 13:56N 31°03' E 122°08'4 8.5
2017-Jun-10 13:29N 31°04' E 122°04'4 8.4
2017-Jun-10 13:00N 31°06' E 121°59'4 8.2
2017-Jun-10 12:30N 31°08' E 121°55'713.2
2017-Jun-10 12:00N 31°12' E 121°49'815.1
2017-Jun-10 11:30N 31°18' E 121°43'612.0
2017-Jun-10 11:00N 31°22' E 121°38'611.9
2017-Jun-10 10:29N 31°25' E 121°32'4 8.4
2017-Jun-10 10:00N 31°27' E 121°28'510.9
2017-Jun-10 09:30N 31°31' E 121°23'612.6
2017-Jun-10 09:00N 31°35' E 121°18'714.4
2017-Jun-10 08:30N 31°40' E 121°12'713.8
2017-Jun-10 08:00N 31°45' E 121°05'612.2
2017-Jun-10 07:30N 31°47' E 120°59'611.5
2017-Jun-10 07:00N 31°51' E 120°54'1910.2
2017-Jun-10 05:09N 32°00' E 120°35'212.8
2017-Jun-10 05:00N 32°01' E 120°33'713.0
2017-Jun-10 04:30N 32°01' E 120°25'3 0.1
2017-Jun-08 02:27N 31°60' E 120°22'3 7.7
2017-Jun-08 02:00N 32°02' E 120°26'4 7.6
2017-Jun-08 01:30N 32°02' E 120°30'11 8.7
2017-Jun-08 00:15N 32°00' E 120°43'2 8.9
2017-Jun-08 00:00N 32°01' E 120°45'4 8.1
2017-Jun-07 23:30N 31°59' E 120°50'4 8.8
2017-Jun-07 23:00N 31°56' E 120°53'5 9.9
2017-Jun-07 22:30N 31°51' E 120°54'8 8.6
2017-Jun-07 21:37N 31°46' E 121°01'2 9.7
2017-Jun-07 21:26N 31°46' E 121°03'4 9.6
2017-Jun-07 21:00N 31°44' E 121°07'5 9.8
2017-Jun-07 20:30N 31°40' E 121°12'510.2
2017-Jun-07 20:00N 31°37' E 121°16'510.4
2017-Jun-07 19:30N 31°33' E 121°20'510.9
2017-Jun-07 19:00N 31°30' E 121°25'510.4
2017-Jun-07 18:30N 31°26' E 121°29'4 8.5
2017-Jun-07 18:00N 31°24' E 121°34'5 9.4
2017-Jun-07 17:30N 31°22' E 121°38'5 9.3
2017-Jun-07 17:00N 31°19' E 121°43'510.1
2017-Jun-07 16:30N 31°17' E 121°49'510.6
2017-Jun-07 16:00N 31°16' E 121°55'611.2
2017-Jun-07 15:30N 31°15' E 122°01'612.0
2017-Jun-07 14:59N 31°12' E 122°08'1313.1
2017-Jun-07 14:00N 31°06' E 122°21'  
2017-Jun-05 04:54N 31°14' E 122°42'0 0.0
2017-Jun-05 04:24N 31°14' E 122°42'0 0.0
2017-Jun-05 03:57N 31°14' E 122°42'0 0.1
2017-Jun-05 03:09N 31°14' E 122°41'0 2.4
2017-Jun-05 02:56N 31°15' E 122°42'3 6.3
2017-Jun-05 02:26N 31°17' E 122°44'3 6.6
2017-Jun-05 01:54N 31°19' E 122°47'510.2
2017-Jun-05 01:25N 31°17' E 122°52'5 8.8
2017-Jun-05 00:53N 31°15' E 122°57'2 5.3
2017-Jun-05 00:30N 31°13' E 122°57'3 5.1
2017-Jun-04 23:58N 31°11' E 123°00'9 8.2
2017-Jun-04 22:50N 31°10' E 123°11'1712.3
2017-Jun-04 21:27N 31°06' E 123°30'612.7
2017-Jun-04 21:00N 31°01' E 123°32'612.6
2017-Jun-04 20:30N 30°54' E 123°34'612.5
2017-Jun-04 20:00N 30°48' E 123°35'712.4
2017-Jun-04 19:27N 30°42' E 123°37'612.4
2017-Jun-04 18:59N 30°36' E 123°39'611.9
2017-Jun-04 18:29N 30°30' E 123°40'611.9
2017-Jun-04 17:58N 30°24' E 123°39'812.1
2017-Jun-04 17:21N 30°17' E 123°41'412.2
2017-Jun-04 17:01N 30°13' E 123°42'612.3
2017-Jun-04 16:29N 30°07' E 123°44'611.8
2017-Jun-04 15:57N 30°00' E 123°45'511.8
2017-Jun-04 15:30N 29°55' E 123°44'612.1
2017-Jun-04 15:01N 29°49' E 123°43'612.1
2017-Jun-04 14:30N 29°43' E 123°41'  
Track history (hours):
 
Tides and Currents Weather Stations Pressure Air Temp Water Temp Dewpoint Dewpoint Depression Visibility Wind Speed Wind Dir Waves Ship Positions

Elizabeth

Last reported at 2017-Jun-10 15:14 UTC. Time now 2017-Jun-23 08:37 UTC.
Position N 31°02' E 122°20'.
Warning: this ship's position is 12 days out of date.

Length 190 m; draft 6.4 m.

Type: Cargo ship. MMSI: 566073000.

Date/timePositionNaut miles runAvg speedWind from/ knotsBaromVisibWave heightAir tempDewpointWater temp
2017-Jun-10 15:14N 31°02' E 122°20'2 9.5
2017-Jun-10 15:00N 31°02' E 122°17'8 7.4
2017-Jun-10 13:56N 31°03' E 122°08'4 8.5
2017-Jun-10 13:29N 31°04' E 122°04'4 8.4
2017-Jun-10 13:00N 31°06' E 121°59'4 8.2
2017-Jun-10 12:30N 31°08' E 121°55'713.2
2017-Jun-10 12:00N 31°12' E 121°49'815.1
2017-Jun-10 11:30N 31°18' E 121°43'612.0
2017-Jun-10 11:00N 31°22' E 121°38'611.9
2017-Jun-10 10:29N 31°25' E 121°32'4 8.4
2017-Jun-10 10:00N 31°27' E 121°28'510.9
2017-Jun-10 09:30N 31°31' E 121°23'612.6
2017-Jun-10 09:00N 31°35' E 121°18'714.4
2017-Jun-10 08:30N 31°40' E 121°12'713.8
2017-Jun-10 08:00N 31°45' E 121°05'612.2
2017-Jun-10 07:30N 31°47' E 120°59'611.5
2017-Jun-10 07:00N 31°51' E 120°54'1910.2
2017-Jun-10 05:09N 32°00' E 120°35'212.8
2017-Jun-10 05:00N 32°01' E 120°33'713.0
2017-Jun-10 04:30N 32°01' E 120°25'3 0.1
2017-Jun-08 02:27N 31°60' E 120°22'3 7.7
2017-Jun-08 02:00N 32°02' E 120°26'4 7.6
2017-Jun-08 01:30N 32°02' E 120°30'11 8.7
2017-Jun-08 00:15N 32°00' E 120°43'2 8.9
2017-Jun-08 00:00N 32°01' E 120°45'4 8.1
2017-Jun-07 23:30N 31°59' E 120°50'4 8.8
2017-Jun-07 23:00N 31°56' E 120°53'5 9.9
2017-Jun-07 22:30N 31°51' E 120°54'8 8.6
2017-Jun-07 21:37N 31°46' E 121°01'2 9.7
2017-Jun-07 21:26N 31°46' E 121°03'4 9.6
2017-Jun-07 21:00N 31°44' E 121°07'5 9.8
2017-Jun-07 20:30N 31°40' E 121°12'510.2
2017-Jun-07 20:00N 31°37' E 121°16'510.4
2017-Jun-07 19:30N 31°33' E 121°20'510.9
2017-Jun-07 19:00N 31°30' E 121°25'510.4
2017-Jun-07 18:30N 31°26' E 121°29'4 8.5
2017-Jun-07 18:00N 31°24' E 121°34'5 9.4
2017-Jun-07 17:30N 31°22' E 121°38'5 9.3
2017-Jun-07 17:00N 31°19' E 121°43'510.1
2017-Jun-07 16:30N 31°17' E 121°49'510.6
2017-Jun-07 16:00N 31°16' E 121°55'611.2
2017-Jun-07 15:30N 31°15' E 122°01'612.0
2017-Jun-07 14:59N 31°12' E 122°08'1313.1
2017-Jun-07 14:00N 31°06' E 122°21'  
2017-Jun-05 04:54N 31°14' E 122°42'0 0.0
2017-Jun-05 04:24N 31°14' E 122°42'0 0.0
2017-Jun-05 03:57N 31°14' E 122°42'0 0.1
2017-Jun-05 03:09N 31°14' E 122°41'0 2.4
2017-Jun-05 02:56N 31°15' E 122°42'3 6.3
2017-Jun-05 02:26N 31°17' E 122°44'3 6.6
2017-Jun-05 01:54N 31°19' E 122°47'510.2
2017-Jun-05 01:25N 31°17' E 122°52'5 8.8
2017-Jun-05 00:53N 31°15' E 122°57'2 5.3
2017-Jun-05 00:30N 31°13' E 122°57'3 5.1
2017-Jun-04 23:58N 31°11' E 123°00'9 8.2
2017-Jun-04 22:50N 31°10' E 123°11'1712.3
2017-Jun-04 21:27N 31°06' E 123°30'612.7
2017-Jun-04 21:00N 31°01' E 123°32'612.6
2017-Jun-04 20:30N 30°54' E 123°34'612.5
2017-Jun-04 20:00N 30°48' E 123°35'712.4
2017-Jun-04 19:27N 30°42' E 123°37'612.4
2017-Jun-04 18:59N 30°36' E 123°39'611.9
2017-Jun-04 18:29N 30°30' E 123°40'611.9
2017-Jun-04 17:58N 30°24' E 123°39'812.1
2017-Jun-04 17:21N 30°17' E 123°41'412.2
2017-Jun-04 17:01N 30°13' E 123°42'612.3
2017-Jun-04 16:29N 30°07' E 123°44'611.8
2017-Jun-04 15:57N 30°00' E 123°45'511.8
2017-Jun-04 15:30N 29°55' E 123°44'612.1
2017-Jun-04 15:01N 29°49' E 123°43'612.1
2017-Jun-04 14:30N 29°43' E 123°41'  

Dump ship's entire track history